sensor_id;sensor_type;location;lat;lon;timestamp;pressure;altitude;pressure_sealevel;temperature;humidity
2711;BME280;20721;47.402;8.550;2023-04-27T00:01:51;96144;;;13.06;60.26
2711;BME280;20721;47.402;8.550;2023-04-27T00:03:51;96137;;;13.05;60.04
2711;BME280;20721;47.402;8.550;2023-04-27T00:04:51;96140;;;13.03;60.12
2711;BME280;20721;47.402;8.550;2023-04-27T00:05:51;96139;;;13.01;60.04
2711;BME280;20721;47.402;8.550;2023-04-27T00:06:51;96139;;;12.99;60.02
2711;BME280;20721;47.402;8.550;2023-04-27T00:07:51;96140;;;12.96;59.88
2711;BME280;20721;47.402;8.550;2023-04-27T00:08:51;96144;;;12.98;60.48
2711;BME280;20721;47.402;8.550;2023-04-27T00:09:51;96145;;;13.04;61.09
2711;BME280;20721;47.402;8.550;2023-04-27T00:10:51;96145;;;13.11;61.32
2711;BME280;20721;47.402;8.550;2023-04-27T00:11:51;96146;;;13.18;60.81
2711;BME280;20721;47.402;8.550;2023-04-27T00:12:51;96143;;;13.23;61.26
2711;BME280;20721;47.402;8.550;2023-04-27T00:13:51;96143;;;13.24;61.73
2711;BME280;20721;47.402;8.550;2023-04-27T00:14:51;96142;;;13.29;61.42
2711;BME280;20721;47.402;8.550;2023-04-27T00:15:51;96143;;;13.31;61.15
2711;BME280;20721;47.402;8.550;2023-04-27T00:16:51;96144;;;13.29;60.08
2711;BME280;20721;47.402;8.550;2023-04-27T00:17:51;96140;;;13.14;60.04
2711;BME280;20721;47.402;8.550;2023-04-27T00:18:52;96142;;;13.06;60.37
2711;BME280;20721;47.402;8.550;2023-04-27T00:19:51;96138;;;13.00;60.18
2711;BME280;20721;47.402;8.550;2023-04-27T00:20:51;96141;;;12.97;60.25
2711;BME280;20721;47.402;8.550;2023-04-27T00:21:51;96136;;;12.99;60.45
2711;BME280;20721;47.402;8.550;2023-04-27T00:23:51;96133;;;13.00;60.35
2711;BME280;20721;47.402;8.550;2023-04-27T00:24:51;96133;;;12.97;60.72
2711;BME280;20721;47.402;8.550;2023-04-27T00:25:51;96136;;;12.86;60.69
2711;BME280;20721;47.402;8.550;2023-04-27T00:26:51;96132;;;12.76;60.76
2711;BME280;20721;47.402;8.550;2023-04-27T00:27:51;96135;;;12.70;61.24
2711;BME280;20721;47.402;8.550;2023-04-27T00:28:51;96137;;;12.73;61.06
2711;BME280;20721;47.402;8.550;2023-04-27T00:29:51;96139;;;12.75;61.29
2711;BME280;20721;47.402;8.550;2023-04-27T00:30:53;96141;;;12.77;61.75
2711;BME280;20721;47.402;8.550;2023-04-27T00:31:51;96136;;;12.80;61.92
2711;BME280;20721;47.402;8.550;2023-04-27T00:32:51;96137;;;12.85;62.17
2711;BME280;20721;47.402;8.550;2023-04-27T00:33:51;96133;;;12.89;62.23
2711;BME280;20721;47.402;8.550;2023-04-27T00:34:51;96130;;;12.90;61.29
2711;BME280;20721;47.402;8.550;2023-04-27T00:35:51;96130;;;12.79;60.96
2711;BME280;20721;47.402;8.550;2023-04-27T00:36:51;96127;;;12.71;61.32
2711;BME280;20721;47.402;8.550;2023-04-27T00:37:52;96125;;;12.69;61.56
2711;BME280;20721;47.402;8.550;2023-04-27T00:38:51;96122;;;12.70;61.00
2711;BME280;20721;47.402;8.550;2023-04-27T00:39:51;96122;;;12.69;60.69
2711;BME280;20721;47.402;8.550;2023-04-27T00:42:51;96118;;;12.67;60.82
2711;BME280;20721;47.402;8.550;2023-04-27T00:43:51;96115;;;12.66;60.74
2711;BME280;20721;47.402;8.550;2023-04-27T00:44:51;96114;;;12.67;60.85
2711;BME280;20721;47.402;8.550;2023-04-27T00:46:51;96113;;;12.65;60.96
2711;BME280;20721;47.402;8.550;2023-04-27T00:47:51;96111;;;12.64;60.78
2711;BME280;20721;47.402;8.550;2023-04-27T00:48:51;96114;;;12.66;60.93
2711;BME280;20721;47.402;8.550;2023-04-27T00:49:51;96112;;;12.69;61.48
2711;BME280;20721;47.402;8.550;2023-04-27T00:50:51;96111;;;12.75;61.46
2711;BME280;20721;47.402;8.550;2023-04-27T00:51:51;96111;;;12.79;60.71
2711;BME280;20721;47.402;8.550;2023-04-27T00:52:51;96111;;;12.81;60.93
2711;BME280;20721;47.402;8.550;2023-04-27T00:53:51;96111;;;12.85;60.88
2711;BME280;20721;47.402;8.550;2023-04-27T00:54:52;96115;;;12.91;61.27
2711;BME280;20721;47.402;8.550;2023-04-27T00:55:51;96109;;;12.93;61.38
2711;BME280;20721;47.402;8.550;2023-04-27T00:56:51;96106;;;12.96;60.77
2711;BME280;20721;47.402;8.550;2023-04-27T00:57:51;96104;;;12.94;61.02
2711;BME280;20721;47.402;8.550;2023-04-27T00:58:51;96107;;;12.93;60.78
2711;BME280;20721;47.402;8.550;2023-04-27T00:59:51;96108;;;12.89;60.92
2711;BME280;20721;47.402;8.550;2023-04-27T01:00:51;96105;;;12.86;60.62
2711;BME280;20721;47.402;8.550;2023-04-27T01:01:51;96106;;;12.81;60.37
2711;BME280;20721;47.402;8.550;2023-04-27T01:04:52;96110;;;12.82;60.60
2711;BME280;20721;47.402;8.550;2023-04-27T01:05:51;96112;;;12.81;60.36
2711;BME280;20721;47.402;8.550;2023-04-27T01:06:51;96114;;;12.77;60.35
2711;BME280;20721;47.402;8.550;2023-04-27T01:07:51;96117;;;12.75;60.49
2711;BME280;20721;47.402;8.550;2023-04-27T01:08:51;96117;;;12.68;60.17
2711;BME280;20721;47.402;8.550;2023-04-27T01:09:51;96119;;;12.60;60.42
2711;BME280;20721;47.402;8.550;2023-04-27T01:10:51;96117;;;12.56;60.89
2711;BME280;20721;47.402;8.550;2023-04-27T01:11:51;96116;;;12.61;60.47
2711;BME280;20721;47.402;8.550;2023-04-27T01:12:51;96115;;;12.60;59.87
2711;BME280;20721;47.402;8.550;2023-04-27T01:13:51;96122;;;12.62;60.18
2711;BME280;20721;47.402;8.550;2023-04-27T01:14:51;96126;;;12.67;60.48
2711;BME280;20721;47.402;8.550;2023-04-27T01:15:51;96126;;;12.71;60.36
2711;BME280;20721;47.402;8.550;2023-04-27T01:16:51;96127;;;12.77;60.48
2711;BME280;20721;47.402;8.550;2023-04-27T01:28:06;96134;;;13.14;60.76
2711;BME280;20721;47.402;8.550;2023-04-27T01:28:51;96132;;;13.16;60.41
2711;BME280;20721;47.402;8.550;2023-04-27T01:29:51;96133;;;13.19;60.05
2711;BME280;20721;47.402;8.550;2023-04-27T01:30:51;96133;;;13.20;59.77
2711;BME280;20721;47.402;8.550;2023-04-27T01:31:51;96133;;;13.19;59.96
2711;BME280;20721;47.402;8.550;2023-04-27T01:33:51;96135;;;13.17;59.80
2711;BME280;20721;47.402;8.550;2023-04-27T01:34:51;96138;;;13.16;59.79
2711;BME280;20721;47.402;8.550;2023-04-27T01:36:51;96139;;;13.15;60.55
2711;BME280;20721;47.402;8.550;2023-04-27T01:37:51;96141;;;13.16;60.87
2711;BME280;20721;47.402;8.550;2023-04-27T01:38:51;96140;;;13.19;61.11
2711;BME280;20721;47.402;8.550;2023-04-27T01:39:51;96143;;;13.20;60.96
2711;BME280;20721;47.402;8.550;2023-04-27T01:40:51;96147;;;13.22;60.98
2711;BME280;20721;47.402;8.550;2023-04-27T01:41:51;96151;;;13.23;61.01
2711;BME280;20721;47.402;8.550;2023-04-27T01:43:51;96153;;;13.26;61.40
2711;BME280;20721;47.402;8.550;2023-04-27T01:44:51;96154;;;13.25;61.07
2711;BME280;20721;47.402;8.550;2023-04-27T01:45:51;96160;;;13.26;61.32
2711;BME280;20721;47.402;8.550;2023-04-27T01:49:51;96161;;;13.24;60.55
2711;BME280;20721;47.402;8.550;2023-04-27T01:50:51;96165;;;13.21;61.08
2711;BME280;20721;47.402;8.550;2023-04-27T01:51:51;96164;;;13.19;60.84
2711;BME280;20721;47.402;8.550;2023-04-27T01:52:51;96166;;;13.16;60.98
2711;BME280;20721;47.402;8.550;2023-04-27T01:53:51;96167;;;13.14;60.98
2711;BME280;20721;47.402;8.550;2023-04-27T01:54:51;96166;;;13.12;61.39
2711;BME280;20721;47.402;8.550;2023-04-27T01:55:51;96165;;;13.10;61.36
2711;BME280;20721;47.402;8.550;2023-04-27T01:56:51;96163;;;13.09;61.37
2711;BME280;20721;47.402;8.550;2023-04-27T01:57:51;96167;;;13.04;61.35
2711;BME280;20721;47.402;8.550;2023-04-27T01:58:51;96162;;;12.97;61.63
2711;BME280;20721;47.402;8.550;2023-04-27T01:59:51;96163;;;12.95;61.68
2711;BME280;20721;47.402;8.550;2023-04-27T02:00:51;96164;;;12.91;61.63
2711;BME280;20721;47.402;8.550;2023-04-27T02:01:51;96165;;;12.89;61.85
2711;BME280;20721;47.402;8.550;2023-04-27T02:02:52;96165;;;12.87;61.92
2711;BME280;20721;47.402;8.550;2023-04-27T02:03:51;96165;;;12.85;62.02
2711;BME280;20721;47.402;8.550;2023-04-27T02:04:51;96164;;;12.81;62.43
2711;BME280;20721;47.402;8.550;2023-04-27T02:05:51;96162;;;12.80;62.26
2711;BME280;20721;47.402;8.550;2023-04-27T02:06:51;96167;;;12.79;62.58
2711;BME280;20721;47.402;8.550;2023-04-27T02:08:51;96165;;;12.74;62.70
2711;BME280;20721;47.402;8.550;2023-04-27T02:09:51;96162;;;12.65;63.06
2711;BME280;20721;47.402;8.550;2023-04-27T02:10:51;96161;;;12.59;63.46
2711;BME280;20721;47.402;8.550;2023-04-27T02:11:51;96157;;;12.50;63.53
2711;BME280;20721;47.402;8.550;2023-04-27T02:12:51;96159;;;12.42;63.72
2711;BME280;20721;47.402;8.550;2023-04-27T02:13:51;96160;;;12.41;63.73
2711;BME280;20721;47.402;8.550;2023-04-27T02:14:51;96157;;;12.40;63.71
2711;BME280;20721;47.402;8.550;2023-04-27T02:15:51;96159;;;12.42;62.96
2711;BME280;20721;47.402;8.550;2023-04-27T02:16:51;96158;;;12.38;63.08
2711;BME280;20721;47.402;8.550;2023-04-27T02:17:51;96155;;;12.32;62.99
2711;BME280;20721;47.402;8.550;2023-04-27T02:19:51;96156;;;12.35;63.56
2711;BME280;20721;47.402;8.550;2023-04-27T02:20:51;96156;;;12.34;63.73
2711;BME280;20721;47.402;8.550;2023-04-27T02:22:52;96153;;;12.33;63.76
2711;BME280;20721;47.402;8.550;2023-04-27T02:24:51;96147;;;12.29;63.74
2711;BME280;20721;47.402;8.550;2023-04-27T02:25:51;96143;;;12.25;63.80
2711;BME280;20721;47.402;8.550;2023-04-27T02:26:51;96147;;;12.27;63.66
2711;BME280;20721;47.402;8.550;2023-04-27T02:27:52;96143;;;12.30;63.82
2711;BME280;20721;47.402;8.550;2023-04-27T02:28:51;96145;;;12.34;63.25
2711;BME280;20721;47.402;8.550;2023-04-27T02:29:51;96148;;;12.36;63.33
2711;BME280;20721;47.402;8.550;2023-04-27T02:30:51;96146;;;12.39;63.21
2711;BME280;20721;47.402;8.550;2023-04-27T02:31:51;96146;;;12.37;63.00
2711;BME280;20721;47.402;8.550;2023-04-27T02:32:51;96141;;;12.35;63.29
2711;BME280;20721;47.402;8.550;2023-04-27T02:33:51;96140;;;12.20;62.75
2711;BME280;20721;47.402;8.550;2023-04-27T02:34:51;96138;;;12.05;63.17
2711;BME280;20721;47.402;8.550;2023-04-27T02:35:51;96136;;;11.97;63.12
2711;BME280;20721;47.402;8.550;2023-04-27T02:36:51;96131;;;11.86;63.01
2711;BME280;20721;47.402;8.550;2023-04-27T02:37:51;96131;;;11.77;63.56
2711;BME280;20721;47.402;8.550;2023-04-27T02:38:51;96134;;;11.74;63.89
2711;BME280;20721;47.402;8.550;2023-04-27T02:39:51;96129;;;11.75;63.54
2711;BME280;20721;47.402;8.550;2023-04-27T02:40:53;96129;;;11.76;63.28
2711;BME280;20721;47.402;8.550;2023-04-27T02:41:51;96128;;;11.72;63.55
2711;BME280;20721;47.402;8.550;2023-04-27T02:43:51;96129;;;11.71;63.93
2711;BME280;20721;47.402;8.550;2023-04-27T02:44:51;96127;;;11.73;64.11
2711;BME280;20721;47.402;8.550;2023-04-27T02:45:51;96132;;;11.77;63.57
2711;BME280;20721;47.402;8.550;2023-04-27T02:46:51;96130;;;11.82;63.70
2711;BME280;20721;47.402;8.550;2023-04-27T02:47:51;96132;;;11.89;64.22
2711;BME280;20721;47.402;8.550;2023-04-27T02:48:51;96132;;;11.94;64.42
2711;BME280;20721;47.402;8.550;2023-04-27T02:49:52;96132;;;11.99;64.06
2711;BME280;20721;47.402;8.550;2023-04-27T02:50:51;96131;;;12.04;63.79
2711;BME280;20721;47.402;8.550;2023-04-27T02:51:51;96124;;;12.08;63.43
2711;BME280;20721;47.402;8.550;2023-04-27T02:52:51;96124;;;12.11;63.57
2711;BME280;20721;47.402;8.550;2023-04-27T02:53:51;96125;;;12.12;63.75
2711;BME280;20721;47.402;8.550;2023-04-27T02:54:51;96125;;;12.14;64.02
2711;BME280;20721;47.402;8.550;2023-04-27T02:55:51;96128;;;12.16;63.84
2711;BME280;20721;47.402;8.550;2023-04-27T02:56:51;96124;;;12.18;62.88
2711;BME280;20721;47.402;8.550;2023-04-27T02:57:51;96128;;;12.19;62.59
2711;BME280;20721;47.402;8.550;2023-04-27T02:58:51;96129;;;12.18;63.40
2711;BME280;20721;47.402;8.550;2023-04-27T03:00:53;96128;;;12.19;63.07
2711;BME280;20721;47.402;8.550;2023-04-27T03:01:51;96127;;;12.17;62.57
2711;BME280;20721;47.402;8.550;2023-04-27T03:02:51;96134;;;12.16;62.64
2711;BME280;20721;47.402;8.550;2023-04-27T03:03:51;96132;;;12.15;63.11
2711;BME280;20721;47.402;8.550;2023-04-27T03:04:52;96131;;;12.16;63.74
2711;BME280;20721;47.402;8.550;2023-04-27T03:05:51;96133;;;12.18;63.81
2711;BME280;20721;47.402;8.550;2023-04-27T03:06:51;96132;;;12.19;63.85
2711;BME280;20721;47.402;8.550;2023-04-27T03:07:51;96134;;;12.13;63.01
2711;BME280;20721;47.402;8.550;2023-04-27T03:08:51;96135;;;12.04;62.62
2711;BME280;20721;47.402;8.550;2023-04-27T03:09:51;96139;;;12.01;63.11
2711;BME280;20721;47.402;8.550;2023-04-27T03:10:51;96141;;;11.98;62.64
2711;BME280;20721;47.402;8.550;2023-04-27T03:12:51;96139;;;11.99;63.20
2711;BME280;20721;47.402;8.550;2023-04-27T03:13:51;96139;;;11.91;62.68
2711;BME280;20721;47.402;8.550;2023-04-27T03:14:51;96137;;;11.92;63.26
2711;BME280;20721;47.402;8.550;2023-04-27T03:16:52;96139;;;11.87;63.11
2711;BME280;20721;47.402;8.550;2023-04-27T03:17:51;96141;;;11.82;63.18
2711;BME280;20721;47.402;8.550;2023-04-27T03:18:51;96140;;;11.74;63.11
2711;BME280;20721;47.402;8.550;2023-04-27T03:19:51;96143;;;11.69;63.22
2711;BME280;20721;47.402;8.550;2023-04-27T03:21:51;96143;;;11.72;63.70
2711;BME280;20721;47.402;8.550;2023-04-27T03:22:51;96142;;;11.78;63.65
2711;BME280;20721;47.402;8.550;2023-04-27T03:23:51;96139;;;11.84;63.45
2711;BME280;20721;47.402;8.550;2023-04-27T03:24:51;96142;;;11.81;63.07
2711;BME280;20721;47.402;8.550;2023-04-27T03:26:51;96142;;;11.82;63.35
2711;BME280;20721;47.402;8.550;2023-04-27T03:27:51;96146;;;11.83;63.37
2711;BME280;20721;47.402;8.550;2023-04-27T03:28:51;96151;;;11.86;63.70
2711;BME280;20721;47.402;8.550;2023-04-27T03:29:52;96149;;;11.91;63.33
2711;BME280;20721;47.402;8.550;2023-04-27T03:30:51;96150;;;11.88;62.66
2711;BME280;20721;47.402;8.550;2023-04-27T03:31:51;96154;;;11.90;63.03
2711;BME280;20721;47.402;8.550;2023-04-27T03:32:51;96151;;;11.92;63.14
2711;BME280;20721;47.402;8.550;2023-04-27T03:33:51;96153;;;11.94;62.42
2711;BME280;20721;47.402;8.550;2023-04-27T03:34:52;96151;;;11.93;62.96
2711;BME280;20721;47.402;8.550;2023-04-27T03:35:59;96150;;;11.95;63.27
2711;BME280;20721;47.402;8.550;2023-04-27T03:36:51;96152;;;11.98;63.05
2711;BME280;20721;47.402;8.550;2023-04-27T03:37:51;96157;;;11.99;62.55
2711;BME280;20721;47.402;8.550;2023-04-27T03:38:51;96150;;;11.98;63.13
2711;BME280;20721;47.402;8.550;2023-04-27T03:39:51;96152;;;12.00;63.43
2711;BME280;20721;47.402;8.550;2023-04-27T03:40:52;96149;;;12.02;63.02
2711;BME280;20721;47.402;8.550;2023-04-27T03:41:51;96147;;;12.04;63.02
2711;BME280;20721;47.402;8.550;2023-04-27T03:42:51;96146;;;12.05;62.93
2711;BME280;20721;47.402;8.550;2023-04-27T03:43:52;96143;;;12.07;62.82
2711;BME280;20721;47.402;8.550;2023-04-27T03:44:51;96142;;;12.09;63.07
2711;BME280;20721;47.402;8.550;2023-04-27T03:45:51;96146;;;12.10;62.35
2711;BME280;20721;47.402;8.550;2023-04-27T03:46:51;96147;;;12.05;62.63
2711;BME280;20721;47.402;8.550;2023-04-27T03:47:51;96149;;;12.02;62.52
2711;BME280;20721;47.402;8.550;2023-04-27T03:48:51;96150;;;12.01;62.72
2711;BME280;20721;47.402;8.550;2023-04-27T03:49:51;96151;;;11.96;62.68
2711;BME280;20721;47.402;8.550;2023-04-27T03:51:51;96147;;;11.94;62.92
2711;BME280;20721;47.402;8.550;2023-04-27T03:52:51;96151;;;11.91;62.84
2711;BME280;20721;47.402;8.550;2023-04-27T03:53:51;96150;;;11.86;62.87
2711;BME280;20721;47.402;8.550;2023-04-27T03:54:51;96153;;;11.77;62.94
2711;BME280;20721;47.402;8.550;2023-04-27T03:55:51;96151;;;11.69;62.57
2711;BME280;20721;47.402;8.550;2023-04-27T03:56:51;96153;;;11.67;62.96
2711;BME280;20721;47.402;8.550;2023-04-27T03:57:51;96151;;;11.55;63.32
2711;BME280;20721;47.402;8.550;2023-04-27T03:58:51;96148;;;11.49;63.86
2711;BME280;20721;47.402;8.550;2023-04-27T03:59:51;96156;;;11.50;63.88
2711;BME280;20721;47.402;8.550;2023-04-27T04:00:51;96151;;;11.47;63.94
2711;BME280;20721;47.402;8.550;2023-04-27T04:01:51;96151;;;11.42;64.05
2711;BME280;20721;47.402;8.550;2023-04-27T04:02:52;96153;;;11.44;63.60
2711;BME280;20721;47.402;8.550;2023-04-27T04:03:52;96155;;;11.49;63.80
2711;BME280;20721;47.402;8.550;2023-04-27T04:04:52;96152;;;11.53;62.73
2711;BME280;20721;47.402;8.550;2023-04-27T04:05:51;96151;;;11.54;62.16
2711;BME280;20721;47.402;8.550;2023-04-27T04:06:51;96151;;;11.59;63.25
2711;BME280;20721;47.402;8.550;2023-04-27T04:07:51;96149;;;11.64;62.85
2711;BME280;20721;47.402;8.550;2023-04-27T04:08:51;96150;;;11.70;62.91
2711;BME280;20721;47.402;8.550;2023-04-27T04:09:51;96153;;;11.71;62.49
2711;BME280;20721;47.402;8.550;2023-04-27T04:10:51;96151;;;11.58;62.53
2711;BME280;20721;47.402;8.550;2023-04-27T04:11:51;96156;;;11.47;63.07
2711;BME280;20721;47.402;8.550;2023-04-27T04:12:51;96155;;;11.44;63.10
2711;BME280;20721;47.402;8.550;2023-04-27T04:14:51;96158;;;11.43;63.27
2711;BME280;20721;47.402;8.550;2023-04-27T04:16:00;96162;;;11.46;62.75
2711;BME280;20721;47.402;8.550;2023-04-27T04:16:51;96159;;;11.49;62.52
2711;BME280;20721;47.402;8.550;2023-04-27T04:17:51;96164;;;11.51;62.53
2711;BME280;20721;47.402;8.550;2023-04-27T04:18:51;96158;;;11.54;63.25
2711;BME280;20721;47.402;8.550;2023-04-27T04:19:51;96163;;;11.64;63.05
2711;BME280;20721;47.402;8.550;2023-04-27T04:20:51;96164;;;11.72;62.63
2711;BME280;20721;47.402;8.550;2023-04-27T04:22:51;96161;;;11.61;62.08
2711;BME280;20721;47.402;8.550;2023-04-27T04:23:51;96167;;;11.51;62.49
2711;BME280;20721;47.402;8.550;2023-04-27T04:24:51;96164;;;11.45;62.85
2711;BME280;20721;47.402;8.550;2023-04-27T04:25:52;96166;;;11.30;63.03
2711;BME280;20721;47.402;8.550;2023-04-27T04:26:51;96163;;;11.21;63.79
2711;BME280;20721;47.402;8.550;2023-04-27T04:27:51;96165;;;11.10;64.25
2711;BME280;20721;47.402;8.550;2023-04-27T04:28:51;96168;;;10.91;64.49
2711;BME280;20721;47.402;8.550;2023-04-27T04:29:51;96164;;;10.78;64.72
2711;BME280;20721;47.402;8.550;2023-04-27T04:30:51;96165;;;10.73;65.28
2711;BME280;20721;47.402;8.550;2023-04-27T04:31:51;96160;;;10.65;64.95
2711;BME280;20721;47.402;8.550;2023-04-27T04:32:51;96162;;;10.59;64.63
2711;BME280;20721;47.402;8.550;2023-04-27T04:33:52;96160;;;10.60;64.57
2711;BME280;20721;47.402;8.550;2023-04-27T04:34:52;96162;;;10.66;65.17
2711;BME280;20721;47.402;8.550;2023-04-27T04:35:52;96163;;;10.75;64.88
2711;BME280;20721;47.402;8.550;2023-04-27T04:36:51;96156;;;10.82;64.66
2711;BME280;20721;47.402;8.550;2023-04-27T04:37:51;96159;;;10.91;64.65
2711;BME280;20721;47.402;8.550;2023-04-27T04:38:52;96157;;;11.03;64.39
2711;BME280;20721;47.402;8.550;2023-04-27T04:39:51;96157;;;11.14;64.09
2711;BME280;20721;47.402;8.550;2023-04-27T04:40:52;96155;;;11.20;63.85
2711;BME280;20721;47.402;8.550;2023-04-27T04:41:51;96159;;;11.30;63.53
2711;BME280;20721;47.402;8.550;2023-04-27T04:42:51;96161;;;11.39;63.47
2711;BME280;20721;47.402;8.550;2023-04-27T04:43:51;96160;;;11.46;63.23
2711;BME280;20721;47.402;8.550;2023-04-27T04:44:52;96162;;;11.52;63.78
2711;BME280;20721;47.402;8.550;2023-04-27T04:45:51;96162;;;11.59;63.95
2711;BME280;20721;47.402;8.550;2023-04-27T04:46:51;96162;;;11.67;63.87
2711;BME280;20721;47.402;8.550;2023-04-27T04:47:53;96159;;;11.73;63.80
2711;BME280;20721;47.402;8.550;2023-04-27T04:48:55;96166;;;11.79;63.71
2711;BME280;20721;47.402;8.550;2023-04-27T04:49:51;96166;;;11.82;63.06
2711;BME280;20721;47.402;8.550;2023-04-27T04:50:51;96168;;;11.87;63.22
2711;BME280;20721;47.402;8.550;2023-04-27T04:51:51;96171;;;11.92;63.33
2711;BME280;20721;47.402;8.550;2023-04-27T04:52:51;96169;;;11.95;63.67
2711;BME280;20721;47.402;8.550;2023-04-27T04:53:51;96171;;;11.99;63.71
2711;BME280;20721;47.402;8.550;2023-04-27T04:54:52;96171;;;12.02;63.76
2711;BME280;20721;47.402;8.550;2023-04-27T04:55:51;96173;;;12.08;63.95
2711;BME280;20721;47.402;8.550;2023-04-27T04:56:51;96174;;;12.15;63.98
2711;BME280;20721;47.402;8.550;2023-04-27T04:57:51;96173;;;12.21;63.75
2711;BME280;20721;47.402;8.550;2023-04-27T04:58:51;96171;;;12.28;63.66
2711;BME280;20721;47.402;8.550;2023-04-27T04:59:51;96169;;;12.31;63.38
2711;BME280;20721;47.402;8.550;2023-04-27T05:00:51;96164;;;12.32;63.23
2711;BME280;20721;47.402;8.550;2023-04-27T05:01:54;96162;;;12.34;62.95
2711;BME280;20721;47.402;8.550;2023-04-27T05:02:52;96162;;;12.36;62.87
2711;BME280;20721;47.402;8.550;2023-04-27T05:04:52;96157;;;12.35;62.73
2711;BME280;20721;47.402;8.550;2023-04-27T05:06:52;96160;;;12.34;62.57
2711;BME280;20721;47.402;8.550;2023-04-27T05:07:51;96159;;;12.31;62.53
2711;BME280;20721;47.402;8.550;2023-04-27T05:09:52;96167;;;12.30;62.80
2711;BME280;20721;47.402;8.550;2023-04-27T05:10:52;96168;;;12.31;63.02
2711;BME280;20721;47.402;8.550;2023-04-27T05:12:52;96166;;;12.34;63.10
2711;BME280;20721;47.402;8.550;2023-04-27T05:13:52;96164;;;12.36;62.76
2711;BME280;20721;47.402;8.550;2023-04-27T05:14:52;96165;;;12.34;62.57
2711;BME280;20721;47.402;8.550;2023-04-27T05:15:52;96166;;;12.33;62.80
2711;BME280;20721;47.402;8.550;2023-04-27T05:16:51;96165;;;12.31;62.61
2711;BME280;20721;47.402;8.550;2023-04-27T05:17:53;96167;;;12.32;62.79
2711;BME280;20721;47.402;8.550;2023-04-27T05:18:53;96166;;;12.33;62.71
2711;BME280;20721;47.402;8.550;2023-04-27T05:19:51;96169;;;12.34;62.24
2711;BME280;20721;47.402;8.550;2023-04-27T05:20:51;96167;;;12.37;62.26
2711;BME280;20721;47.402;8.550;2023-04-27T05:21:52;96168;;;12.41;62.57
2711;BME280;20721;47.402;8.550;2023-04-27T05:22:51;96166;;;12.45;62.79
2711;BME280;20721;47.402;8.550;2023-04-27T05:23:51;96170;;;12.49;62.72
2711;BME280;20721;47.402;8.550;2023-04-27T05:24:51;96167;;;12.53;62.72
2711;BME280;20721;47.402;8.550;2023-04-27T05:25:52;96171;;;12.58;62.98
2711;BME280;20721;47.402;8.550;2023-04-27T05:26:52;96172;;;12.61;62.87
2711;BME280;20721;47.402;8.550;2023-04-27T05:27:51;96177;;;12.65;62.70
2711;BME280;20721;47.402;8.550;2023-04-27T05:28:51;96177;;;12.67;63.06
2711;BME280;20721;47.402;8.550;2023-04-27T05:29:51;96177;;;12.71;63.04
2711;BME280;20721;47.402;8.550;2023-04-27T05:30:51;96180;;;12.75;63.04
2711;BME280;20721;47.402;8.550;2023-04-27T05:31:52;96178;;;12.80;62.83
2711;BME280;20721;47.402;8.550;2023-04-27T05:32:52;96182;;;12.83;62.70
2711;BME280;20721;47.402;8.550;2023-04-27T05:33:52;96180;;;12.86;62.72
2711;BME280;20721;47.402;8.550;2023-04-27T05:34:52;96186;;;12.90;62.52
2711;BME280;20721;47.402;8.550;2023-04-27T05:35:52;96184;;;12.92;62.38
2711;BME280;20721;47.402;8.550;2023-04-27T05:37:52;96190;;;12.96;62.39
2711;BME280;20721;47.402;8.550;2023-04-27T05:38:51;96187;;;12.98;62.23
2711;BME280;20721;47.402;8.550;2023-04-27T05:39:52;96187;;;12.99;62.37
2711;BME280;20721;47.402;8.550;2023-04-27T05:40:56;96183;;;13.01;62.11
2711;BME280;20721;47.402;8.550;2023-04-27T05:41:52;96183;;;13.00;61.98
2711;BME280;20721;47.402;8.550;2023-04-27T05:42:52;96183;;;12.99;62.25
2711;BME280;20721;47.402;8.550;2023-04-27T05:43:52;96181;;;12.95;62.01
2711;BME280;20721;47.402;8.550;2023-04-27T05:44:52;96186;;;12.93;62.14
2711;BME280;20721;47.402;8.550;2023-04-27T05:45:52;96187;;;12.91;62.05
2711;BME280;20721;47.402;8.550;2023-04-27T05:46:52;96188;;;12.90;62.77
2711;BME280;20721;47.402;8.550;2023-04-27T05:47:52;96189;;;12.89;62.62
2711;BME280;20721;47.402;8.550;2023-04-27T05:48:51;96190;;;12.88;62.37
2711;BME280;20721;47.402;8.550;2023-04-27T05:50:59;96185;;;12.83;62.13
2711;BME280;20721;47.402;8.550;2023-04-27T05:51:52;96184;;;12.78;61.66
2711;BME280;20721;47.402;8.550;2023-04-27T05:52:52;96184;;;12.74;62.30
2711;BME280;20721;47.402;8.550;2023-04-27T05:53:54;96183;;;12.73;62.34
2711;BME280;20721;47.402;8.550;2023-04-27T05:54:52;96182;;;12.74;62.63
2711;BME280;20721;47.402;8.550;2023-04-27T05:55:52;96183;;;12.75;62.76
2711;BME280;20721;47.402;8.550;2023-04-27T05:56:52;96186;;;12.76;62.79
2711;BME280;20721;47.402;8.550;2023-04-27T05:58:02;96185;;;12.74;62.83
2711;BME280;20721;47.402;8.550;2023-04-27T05:58:52;96190;;;12.75;63.09
2711;BME280;20721;47.402;8.550;2023-04-27T05:59:52;96194;;;12.78;63.22
2711;BME280;20721;47.402;8.550;2023-04-27T06:00:52;96197;;;12.83;63.53
2711;BME280;20721;47.402;8.550;2023-04-27T06:01:52;96198;;;12.88;63.51
2711;BME280;20721;47.402;8.550;2023-04-27T06:02:52;96197;;;12.94;63.40
2711;BME280;20721;47.402;8.550;2023-04-27T06:03:52;96202;;;13.00;63.22
2711;BME280;20721;47.402;8.550;2023-04-27T06:04:52;96197;;;13.04;62.76
2711;BME280;20721;47.402;8.550;2023-04-27T06:05:53;96200;;;13.09;62.85
2711;BME280;20721;47.402;8.550;2023-04-27T06:06:52;96202;;;13.14;62.70
2711;BME280;20721;47.402;8.550;2023-04-27T06:07:52;96201;;;13.19;62.74
2711;BME280;20721;47.402;8.550;2023-04-27T06:08:52;96202;;;13.24;62.81
2711;BME280;20721;47.402;8.550;2023-04-27T06:09:52;96202;;;13.28;62.53
2711;BME280;20721;47.402;8.550;2023-04-27T06:10:52;96200;;;13.32;62.09
2711;BME280;20721;47.402;8.550;2023-04-27T06:11:52;96202;;;13.36;61.79
2711;BME280;20721;47.402;8.550;2023-04-27T06:12:52;96198;;;13.40;61.59
2711;BME280;20721;47.402;8.550;2023-04-27T06:13:52;96198;;;13.44;61.37
2711;BME280;20721;47.402;8.550;2023-04-27T06:14:52;96198;;;13.50;61.39
2711;BME280;20721;47.402;8.550;2023-04-27T06:15:52;96197;;;13.55;61.40
2711;BME280;20721;47.402;8.550;2023-04-27T06:16:52;96198;;;13.58;61.42
2711;BME280;20721;47.402;8.550;2023-04-27T06:17:52;96203;;;13.63;61.23
2711;BME280;20721;47.402;8.550;2023-04-27T06:18:52;96203;;;13.67;61.46